メインページ
METAR-TAF:

METAR-TAF

空港 :

ペルシア湾空港

Asaluyeh, イラン

緯度: 27-22-46N, 経度: 52-44-15E, 海抜: 8m

現時点の気象観測

当レポートは38分前の11:00(UTC)に作成
西/南西の風 10kt
気温 37°C
湿度 60%
気圧 1006 hPa
視程: 7000m

METAR: OIBP 241100Z 25010KT 7000 NSC 37/28 Q1006 A2971

時間: 15:08 (11:38 UTC)


TAF: 見つかりません

4,000以上の空港の気象観測と天気予報(METAR報とTAF報)

利用可能な観測所は地図上に黄色い丸と赤い丸で示す。

丸の上にカーソルを重ねると観測所名を参照できる。

次にクリックすると気象観測と天気予報を参照できる。

マップの切り替え:黒色「×」印の緑ボタンをクリックして拡大、「-」印の緑ボタンをクリックして縮小、緑色の三角印をクリックして隣りの地図に切り替え


METAR-TAF: